sensor_id;sensor_type;location;lat;lon;timestamp;P1;durP1;ratioP1;P2;durP2;ratioP2
5555;SDS011;2801;50.972;7.856;2024-02-26T00:02:18;2.80;;;1.40;;
5555;SDS011;2801;50.972;7.856;2024-02-26T00:04:45;1.57;;;1.20;;
5555;SDS011;2801;50.972;7.856;2024-02-26T00:07:11;3.90;;;1.30;;
5555;SDS011;2801;50.972;7.856;2024-02-26T00:09:38;2.93;;;1.40;;
5555;SDS011;2801;50.972;7.856;2024-02-26T00:12:05;1.60;;;1.00;;
5555;SDS011;2801;50.972;7.856;2024-02-26T00:14:36;2.40;;;1.40;;
5555;SDS011;2801;50.972;7.856;2024-02-26T00:17:03;1.40;;;1.30;;
5555;SDS011;2801;50.972;7.856;2024-02-26T00:19:30;1.20;;;1.03;;
5555;SDS011;2801;50.972;7.856;2024-02-26T00:21:57;1.73;;;1.20;;
5555;SDS011;2801;50.972;7.856;2024-02-26T00:24:24;1.43;;;1.30;;
5555;SDS011;2801;50.972;7.856;2024-02-26T00:26:51;1.93;;;1.20;;
5555;SDS011;2801;50.972;7.856;2024-02-26T00:29:21;3.37;;;1.10;;
5555;SDS011;2801;50.972;7.856;2024-02-26T00:31:48;1.70;;;1.10;;
5555;SDS011;2801;50.972;7.856;2024-02-26T00:34:15;2.97;;;1.10;;
5555;SDS011;2801;50.972;7.856;2024-02-26T00:36:42;1.23;;;1.00;;
5555;SDS011;2801;50.972;7.856;2024-02-26T00:39:11;1.87;;;1.30;;
5555;SDS011;2801;50.972;7.856;2024-02-26T00:41:39;2.60;;;1.60;;
5555;SDS011;2801;50.972;7.856;2024-02-26T00:44:07;1.57;;;1.10;;
5555;SDS011;2801;50.972;7.856;2024-02-26T00:46:34;1.40;;;1.17;;
5555;SDS011;2801;50.972;7.856;2024-02-26T00:49:01;1.83;;;1.40;;
5555;SDS011;2801;50.972;7.856;2024-02-26T00:51:29;3.70;;;1.40;;
5555;SDS011;2801;50.972;7.856;2024-02-26T00:53:57;1.43;;;1.20;;
5555;SDS011;2801;50.972;7.856;2024-02-26T00:56:24;1.73;;;1.03;;
5555;SDS011;2801;50.972;7.856;2024-02-26T00:58:51;2.37;;;1.10;;
5555;SDS011;2801;50.972;7.856;2024-02-26T01:01:18;2.53;;;1.40;;
5555;SDS011;2801;50.972;7.856;2024-02-26T01:03:45;2.53;;;1.40;;
5555;SDS011;2801;50.972;7.856;2024-02-26T01:06:12;2.40;;;1.43;;
5555;SDS011;2801;50.972;7.856;2024-02-26T01:08:39;5.80;;;1.80;;
5555;SDS011;2801;50.972;7.856;2024-02-26T01:11:06;2.03;;;1.30;;
5555;SDS011;2801;50.972;7.856;2024-02-26T01:13:34;1.50;;;1.20;;
5555;SDS011;2801;50.972;7.856;2024-02-26T01:16:01;1.33;;;1.07;;
5555;SDS011;2801;50.972;7.856;2024-02-26T01:18:28;1.30;;;1.07;;
5555;SDS011;2801;50.972;7.856;2024-02-26T01:20:58;1.43;;;1.10;;
5555;SDS011;2801;50.972;7.856;2024-02-26T01:23:25;1.30;;;1.20;;
5555;SDS011;2801;50.972;7.856;2024-02-26T01:25:52;1.67;;;1.17;;
5555;SDS011;2801;50.972;7.856;2024-02-26T01:28:19;2.07;;;1.10;;
5555;SDS011;2801;50.972;7.856;2024-02-26T01:30:46;1.23;;;1.10;;
5555;SDS011;2801;50.972;7.856;2024-02-26T01:33:13;2.13;;;1.20;;
5555;SDS011;2801;50.972;7.856;2024-02-26T01:35:40;1.93;;;1.30;;
5555;SDS011;2801;50.972;7.856;2024-02-26T01:38:07;1.33;;;0.97;;
5555;SDS011;2801;50.972;7.856;2024-02-26T01:40:34;2.80;;;1.03;;
5555;SDS011;2801;50.972;7.856;2024-02-26T01:43:02;1.27;;;1.00;;
5555;SDS011;2801;50.972;7.856;2024-02-26T01:45:29;1.37;;;0.97;;
5555;SDS011;2801;50.972;7.856;2024-02-26T01:47:57;1.20;;;1.10;;
5555;SDS011;2801;50.972;7.856;2024-02-26T01:50:24;1.27;;;1.07;;
5555;SDS011;2801;50.972;7.856;2024-02-26T01:52:52;1.73;;;1.20;;
5555;SDS011;2801;50.972;7.856;2024-02-26T01:55:22;2.77;;;1.30;;
5555;SDS011;2801;50.972;7.856;2024-02-26T01:57:51;1.20;;;1.10;;
5555;SDS011;2801;50.972;7.856;2024-02-26T02:00:19;1.40;;;1.30;;
5555;SDS011;2801;50.972;7.856;2024-02-26T02:02:49;1.77;;;1.30;;
5555;SDS011;2801;50.972;7.856;2024-02-26T02:05:17;1.53;;;1.10;;
5555;SDS011;2801;50.972;7.856;2024-02-26T02:07:48;1.80;;;1.20;;
5555;SDS011;2801;50.972;7.856;2024-02-26T02:10:16;2.27;;;1.33;;
5555;SDS011;2801;50.972;7.856;2024-02-26T02:12:44;3.10;;;1.60;;
5555;SDS011;2801;50.972;7.856;2024-02-26T02:15:11;2.07;;;1.30;;
5555;SDS011;2801;50.972;7.856;2024-02-26T02:17:38;1.30;;;1.13;;
5555;SDS011;2801;50.972;7.856;2024-02-26T02:20:10;1.40;;;1.10;;
5555;SDS011;2801;50.972;7.856;2024-02-26T02:22:46;1.47;;;1.13;;
5555;SDS011;2801;50.972;7.856;2024-02-26T02:25:13;2.80;;;1.30;;
5555;SDS011;2801;50.972;7.856;2024-02-26T02:27:41;1.30;;;1.20;;
5555;SDS011;2801;50.972;7.856;2024-02-26T02:30:09;2.40;;;1.50;;
5555;SDS011;2801;50.972;7.856;2024-02-26T02:32:38;1.57;;;1.20;;
5555;SDS011;2801;50.972;7.856;2024-02-26T02:35:10;1.60;;;1.20;;
5555;SDS011;2801;50.972;7.856;2024-02-26T02:37:37;1.93;;;1.27;;
5555;SDS011;2801;50.972;7.856;2024-02-26T02:40:04;1.63;;;1.13;;
5555;SDS011;2801;50.972;7.856;2024-02-26T02:42:32;1.30;;;1.10;;
5555;SDS011;2801;50.972;7.856;2024-02-26T02:44:59;1.70;;;1.10;;
5555;SDS011;2801;50.972;7.856;2024-02-26T02:47:26;1.50;;;1.20;;
5555;SDS011;2801;50.972;7.856;2024-02-26T02:49:53;1.70;;;1.30;;
5555;SDS011;2801;50.972;7.856;2024-02-26T02:52:21;6.33;;;1.60;;
5555;SDS011;2801;50.972;7.856;2024-02-26T02:54:47;2.10;;;1.33;;
5555;SDS011;2801;50.972;7.856;2024-02-26T02:57:14;1.93;;;1.43;;
5555;SDS011;2801;50.972;7.856;2024-02-26T02:59:41;2.60;;;1.97;;
5555;SDS011;2801;50.972;7.856;2024-02-26T03:02:09;1.63;;;1.30;;
5555;SDS011;2801;50.972;7.856;2024-02-26T03:04:36;1.20;;;1.10;;
5555;SDS011;2801;50.972;7.856;2024-02-26T03:07:03;2.57;;;1.27;;
5555;SDS011;2801;50.972;7.856;2024-02-26T03:09:30;1.80;;;1.40;;
5555;SDS011;2801;50.972;7.856;2024-02-26T03:11:57;1.43;;;1.30;;
5555;SDS011;2801;50.972;7.856;2024-02-26T03:14:24;2.17;;;1.40;;
5555;SDS011;2801;50.972;7.856;2024-02-26T03:16:55;3.00;;;1.43;;
5555;SDS011;2801;50.972;7.856;2024-02-26T03:19:22;1.70;;;1.40;;
5555;SDS011;2801;50.972;7.856;2024-02-26T03:21:51;2.00;;;1.57;;
5555;SDS011;2801;50.972;7.856;2024-02-26T03:24:18;3.03;;;1.53;;
5555;SDS011;2801;50.972;7.856;2024-02-26T03:26:45;4.97;;;1.60;;
5555;SDS011;2801;50.972;7.856;2024-02-26T03:29:12;1.73;;;1.50;;
5555;SDS011;2801;50.972;7.856;2024-02-26T03:31:39;1.27;;;1.17;;
5555;SDS011;2801;50.972;7.856;2024-02-26T03:34:07;2.10;;;1.57;;
5555;SDS011;2801;50.972;7.856;2024-02-26T03:36:34;2.33;;;1.60;;
5555;SDS011;2801;50.972;7.856;2024-02-26T03:39:01;5.13;;;1.40;;
5555;SDS011;2801;50.972;7.856;2024-02-26T03:41:31;2.13;;;1.37;;
5555;SDS011;2801;50.972;7.856;2024-02-26T03:43:59;2.40;;;1.50;;
5555;SDS011;2801;50.972;7.856;2024-02-26T03:46:26;2.70;;;1.80;;
5555;SDS011;2801;50.972;7.856;2024-02-26T03:48:56;1.90;;;1.57;;
5555;SDS011;2801;50.972;7.856;2024-02-26T03:51:23;2.50;;;1.70;;
5555;SDS011;2801;50.972;7.856;2024-02-26T03:53:50;1.97;;;1.60;;
5555;SDS011;2801;50.972;7.856;2024-02-26T03:56:17;2.80;;;1.97;;
5555;SDS011;2801;50.972;7.856;2024-02-26T03:58:44;1.90;;;1.70;;
5555;SDS011;2801;50.972;7.856;2024-02-26T04:01:11;2.00;;;1.40;;
5555;SDS011;2801;50.972;7.856;2024-02-26T04:03:38;2.33;;;1.80;;
5555;SDS011;2801;50.972;7.856;2024-02-26T04:06:08;1.77;;;1.67;;
5555;SDS011;2801;50.972;7.856;2024-02-26T04:08:37;3.13;;;2.00;;
5555;SDS011;2801;50.972;7.856;2024-02-26T04:11:04;1.93;;;1.73;;
5555;SDS011;2801;50.972;7.856;2024-02-26T04:13:33;6.03;;;2.10;;
5555;SDS011;2801;50.972;7.856;2024-02-26T04:16:01;3.50;;;1.70;;
5555;SDS011;2801;50.972;7.856;2024-02-26T04:18:29;2.10;;;1.57;;
5555;SDS011;2801;50.972;7.856;2024-02-26T04:20:56;3.37;;;1.73;;
5555;SDS011;2801;50.972;7.856;2024-02-26T04:23:23;3.33;;;1.93;;
5555;SDS011;2801;50.972;7.856;2024-02-26T04:25:51;3.00;;;1.90;;
5555;SDS011;2801;50.972;7.856;2024-02-26T04:28:19;2.93;;;1.73;;
5555;SDS011;2801;50.972;7.856;2024-02-26T04:30:52;2.80;;;1.83;;
5555;SDS011;2801;50.972;7.856;2024-02-26T04:33:19;2.23;;;1.90;;
5555;SDS011;2801;50.972;7.856;2024-02-26T04:35:46;2.63;;;2.00;;
5555;SDS011;2801;50.972;7.856;2024-02-26T04:38:13;2.70;;;1.90;;
5555;SDS011;2801;50.972;7.856;2024-02-26T04:40:40;2.50;;;2.00;;
5555;SDS011;2801;50.972;7.856;2024-02-26T04:43:07;2.80;;;2.10;;
5555;SDS011;2801;50.972;7.856;2024-02-26T04:45:34;2.27;;;2.07;;
5555;SDS011;2801;50.972;7.856;2024-02-26T04:48:01;3.77;;;2.13;;
5555;SDS011;2801;50.972;7.856;2024-02-26T04:50:29;2.30;;;2.00;;
5555;SDS011;2801;50.972;7.856;2024-02-26T04:52:56;2.10;;;1.70;;
5555;SDS011;2801;50.972;7.856;2024-02-26T04:55:22;2.57;;;2.00;;
5555;SDS011;2801;50.972;7.856;2024-02-26T04:57:49;2.30;;;1.87;;
5555;SDS011;2801;50.972;7.856;2024-02-26T05:00:16;2.50;;;1.87;;
5555;SDS011;2801;50.972;7.856;2024-02-26T05:02:44;2.17;;;1.57;;
5555;SDS011;2801;50.972;7.856;2024-02-26T05:05:11;2.33;;;1.70;;
5555;SDS011;2801;50.972;7.856;2024-02-26T05:07:39;2.17;;;1.80;;
5555;SDS011;2801;50.972;7.856;2024-02-26T05:10:11;4.70;;;2.20;;
5555;SDS011;2801;50.972;7.856;2024-02-26T05:12:38;4.47;;;2.20;;
5555;SDS011;2801;50.972;7.856;2024-02-26T05:15:16;3.07;;;2.00;;
5555;SDS011;2801;50.972;7.856;2024-02-26T05:17:45;3.27;;;2.10;;
5555;SDS011;2801;50.972;7.856;2024-02-26T05:20:12;3.43;;;2.23;;
5555;SDS011;2801;50.972;7.856;2024-02-26T05:22:39;3.97;;;2.70;;
5555;SDS011;2801;50.972;7.856;2024-02-26T05:25:06;3.53;;;2.73;;
5555;SDS011;2801;50.972;7.856;2024-02-26T05:27:33;4.50;;;3.00;;
5555;SDS011;2801;50.972;7.856;2024-02-26T05:30:00;4.27;;;2.30;;
5555;SDS011;2801;50.972;7.856;2024-02-26T05:32:27;5.63;;;2.80;;
5555;SDS011;2801;50.972;7.856;2024-02-26T05:34:54;7.17;;;2.70;;
5555;SDS011;2801;50.972;7.856;2024-02-26T05:37:21;6.37;;;3.03;;
5555;SDS011;2801;50.972;7.856;2024-02-26T05:39:48;3.50;;;2.43;;
5555;SDS011;2801;50.972;7.856;2024-02-26T05:42:15;5.37;;;3.03;;
5555;SDS011;2801;50.972;7.856;2024-02-26T05:44:42;3.90;;;2.80;;
5555;SDS011;2801;50.972;7.856;2024-02-26T05:47:09;4.00;;;2.73;;
5555;SDS011;2801;50.972;7.856;2024-02-26T05:49:36;5.10;;;3.07;;
5555;SDS011;2801;50.972;7.856;2024-02-26T05:52:04;4.70;;;3.00;;
5555;SDS011;2801;50.972;7.856;2024-02-26T05:54:31;4.13;;;3.17;;
5555;SDS011;2801;50.972;7.856;2024-02-26T05:56:58;5.53;;;3.17;;
5555;SDS011;2801;50.972;7.856;2024-02-26T05:59:25;9.10;;;3.70;;
5555;SDS011;2801;50.972;7.856;2024-02-26T06:01:52;4.83;;;3.00;;
5555;SDS011;2801;50.972;7.856;2024-02-26T06:04:19;6.90;;;3.57;;
5555;SDS011;2801;50.972;7.856;2024-02-26T06:06:47;5.03;;;3.20;;
5555;SDS011;2801;50.972;7.856;2024-02-26T06:09:14;5.67;;;3.37;;
5555;SDS011;2801;50.972;7.856;2024-02-26T06:11:41;7.50;;;3.57;;
5555;SDS011;2801;50.972;7.856;2024-02-26T06:14:08;7.77;;;4.53;;
5555;SDS011;2801;50.972;7.856;2024-02-26T06:16:36;4.27;;;3.57;;
5555;SDS011;2801;50.972;7.856;2024-02-26T06:19:03;5.00;;;3.50;;
5555;SDS011;2801;50.972;7.856;2024-02-26T06:21:30;7.00;;;4.00;;
5555;SDS011;2801;50.972;7.856;2024-02-26T06:23:57;4.73;;;2.93;;
5555;SDS011;2801;50.972;7.856;2024-02-26T06:26:24;5.93;;;3.77;;
5555;SDS011;2801;50.972;7.856;2024-02-26T06:28:55;10.53;;;7.40;;
5555;SDS011;2801;50.972;7.856;2024-02-26T06:31:22;8.50;;;5.93;;
5555;SDS011;2801;50.972;7.856;2024-02-26T06:33:49;6.23;;;4.77;;
5555;SDS011;2801;50.972;7.856;2024-02-26T06:36:17;7.37;;;5.40;;
5555;SDS011;2801;50.972;7.856;2024-02-26T06:38:44;6.93;;;4.40;;
5555;SDS011;2801;50.972;7.856;2024-02-26T06:41:11;6.50;;;3.47;;
5555;SDS011;2801;50.972;7.856;2024-02-26T06:43:38;4.67;;;3.53;;
5555;SDS011;2801;50.972;7.856;2024-02-26T06:46:05;6.37;;;3.03;;
5555;SDS011;2801;50.972;7.856;2024-02-26T06:48:33;5.10;;;2.73;;
5555;SDS011;2801;50.972;7.856;2024-02-26T06:51:00;3.63;;;2.60;;
5555;SDS011;2801;50.972;7.856;2024-02-26T06:53:31;3.83;;;2.63;;
5555;SDS011;2801;50.972;7.856;2024-02-26T06:55:58;6.10;;;3.00;;
5555;SDS011;2801;50.972;7.856;2024-02-26T06:58:25;6.10;;;3.30;;
5555;SDS011;2801;50.972;7.856;2024-02-26T07:00:52;5.40;;;3.23;;
5555;SDS011;2801;50.972;7.856;2024-02-26T07:03:22;4.67;;;3.20;;
5555;SDS011;2801;50.972;7.856;2024-02-26T07:05:51;4.23;;;3.07;;
5555;SDS011;2801;50.972;7.856;2024-02-26T07:08:18;5.70;;;3.13;;
5555;SDS011;2801;50.972;7.856;2024-02-26T07:10:45;5.80;;;3.30;;
5555;SDS011;2801;50.972;7.856;2024-02-26T07:13:12;5.53;;;2.80;;
5555;SDS011;2801;50.972;7.856;2024-02-26T07:15:39;6.70;;;3.20;;
5555;SDS011;2801;50.972;7.856;2024-02-26T07:18:06;6.07;;;3.00;;
5555;SDS011;2801;50.972;7.856;2024-02-26T07:20:34;6.90;;;3.60;;
5555;SDS011;2801;50.972;7.856;2024-02-26T07:23:01;6.87;;;3.63;;
5555;SDS011;2801;50.972;7.856;2024-02-26T07:25:28;5.90;;;3.17;;
5555;SDS011;2801;50.972;7.856;2024-02-26T07:27:55;4.23;;;2.70;;
5555;SDS011;2801;50.972;7.856;2024-02-26T07:30:22;5.47;;;2.97;;
5555;SDS011;2801;50.972;7.856;2024-02-26T07:32:50;5.33;;;2.70;;
5555;SDS011;2801;50.972;7.856;2024-02-26T07:35:18;4.07;;;2.77;;
5555;SDS011;2801;50.972;7.856;2024-02-26T07:37:50;5.13;;;2.70;;
5555;SDS011;2801;50.972;7.856;2024-02-26T07:40:17;5.50;;;2.63;;
5555;SDS011;2801;50.972;7.856;2024-02-26T07:42:45;4.07;;;2.60;;
5555;SDS011;2801;50.972;7.856;2024-02-26T07:45:12;5.53;;;2.60;;
5555;SDS011;2801;50.972;7.856;2024-02-26T07:47:41;4.13;;;2.50;;
5555;SDS011;2801;50.972;7.856;2024-02-26T07:50:10;3.63;;;2.30;;
5555;SDS011;2801;50.972;7.856;2024-02-26T07:52:39;4.43;;;2.27;;
5555;SDS011;2801;50.972;7.856;2024-02-26T07:55:06;3.37;;;2.30;;
5555;SDS011;2801;50.972;7.856;2024-02-26T07:57:34;4.30;;;2.20;;
5555;SDS011;2801;50.972;7.856;2024-02-26T08:00:04;4.40;;;2.63;;
5555;SDS011;2801;50.972;7.856;2024-02-26T08:02:35;4.20;;;2.47;;
5555;SDS011;2801;50.972;7.856;2024-02-26T08:05:03;8.97;;;2.03;;
5555;SDS011;2801;50.972;7.856;2024-02-26T08:07:31;3.00;;;1.90;;
5555;SDS011;2801;50.972;7.856;2024-02-26T08:09:58;3.87;;;2.50;;
5555;SDS011;2801;50.972;7.856;2024-02-26T08:12:24;3.97;;;2.30;;
5555;SDS011;2801;50.972;7.856;2024-02-26T08:14:52;2.77;;;1.83;;
5555;SDS011;2801;50.972;7.856;2024-02-26T08:17:19;5.37;;;2.23;;
5555;SDS011;2801;50.972;7.856;2024-02-26T08:19:46;3.47;;;2.37;;
5555;SDS011;2801;50.972;7.856;2024-02-26T08:22:13;4.03;;;2.53;;
5555;SDS011;2801;50.972;7.856;2024-02-26T08:24:42;4.20;;;2.70;;
5555;SDS011;2801;50.972;7.856;2024-02-26T08:27:10;4.10;;;2.63;;
5555;SDS011;2801;50.972;7.856;2024-02-26T08:29:37;4.00;;;2.40;;
5555;SDS011;2801;50.972;7.856;2024-02-26T08:32:04;3.70;;;2.07;;
5555;SDS011;2801;50.972;7.856;2024-02-26T08:34:33;3.63;;;2.60;;
5555;SDS011;2801;50.972;7.856;2024-02-26T08:37:00;5.97;;;3.40;;
5555;SDS011;2801;50.972;7.856;2024-02-26T08:39:27;3.80;;;2.73;;
5555;SDS011;2801;50.972;7.856;2024-02-26T08:41:54;4.73;;;2.90;;
5555;SDS011;2801;50.972;7.856;2024-02-26T08:44:21;5.07;;;2.50;;
5555;SDS011;2801;50.972;7.856;2024-02-26T08:46:48;3.70;;;2.60;;
5555;SDS011;2801;50.972;7.856;2024-02-26T08:49:17;4.13;;;2.90;;
5555;SDS011;2801;50.972;7.856;2024-02-26T08:51:44;4.00;;;2.20;;
5555;SDS011;2801;50.972;7.856;2024-02-26T08:54:11;4.47;;;2.67;;
5555;SDS011;2801;50.972;7.856;2024-02-26T08:56:38;5.60;;;3.10;;
5555;SDS011;2801;50.972;7.856;2024-02-26T08:59:05;6.07;;;2.77;;
5555;SDS011;2801;50.972;7.856;2024-02-26T09:01:32;5.43;;;2.70;;
5555;SDS011;2801;50.972;7.856;2024-02-26T09:03:59;5.60;;;2.60;;
5555;SDS011;2801;50.972;7.856;2024-02-26T09:06:27;5.27;;;3.03;;
5555;SDS011;2801;50.972;7.856;2024-02-26T09:08:56;5.10;;;3.10;;
5555;SDS011;2801;50.972;7.856;2024-02-26T09:11:26;4.60;;;2.70;;
5555;SDS011;2801;50.972;7.856;2024-02-26T09:13:53;3.33;;;2.30;;
5555;SDS011;2801;50.972;7.856;2024-02-26T09:16:20;4.20;;;2.40;;
5555;SDS011;2801;50.972;7.856;2024-02-26T09:18:47;4.23;;;2.90;;
5555;SDS011;2801;50.972;7.856;2024-02-26T09:21:14;5.67;;;2.90;;
5555;SDS011;2801;50.972;7.856;2024-02-26T09:23:42;4.00;;;2.70;;
5555;SDS011;2801;50.972;7.856;2024-02-26T09:26:09;7.17;;;3.17;;
5555;SDS011;2801;50.972;7.856;2024-02-26T09:28:36;7.43;;;3.10;;
5555;SDS011;2801;50.972;7.856;2024-02-26T09:31:05;4.53;;;2.80;;
5555;SDS011;2801;50.972;7.856;2024-02-26T09:33:33;5.87;;;3.00;;
5555;SDS011;2801;50.972;7.856;2024-02-26T09:36:00;7.17;;;3.33;;
5555;SDS011;2801;50.972;7.856;2024-02-26T09:38:28;8.80;;;3.27;;
5555;SDS011;2801;50.972;7.856;2024-02-26T09:41:01;5.13;;;3.10;;
5555;SDS011;2801;50.972;7.856;2024-02-26T09:43:31;4.43;;;2.70;;
5555;SDS011;2801;50.972;7.856;2024-02-26T09:46:02;4.77;;;3.60;;
5555;SDS011;2801;50.972;7.856;2024-02-26T09:48:31;7.27;;;3.73;;
5555;SDS011;2801;50.972;7.856;2024-02-26T09:51:01;6.03;;;3.60;;
5555;SDS011;2801;50.972;7.856;2024-02-26T09:53:30;5.17;;;3.23;;
5555;SDS011;2801;50.972;7.856;2024-02-26T09:55:58;6.53;;;3.53;;
5555;SDS011;2801;50.972;7.856;2024-02-26T09:58:27;6.23;;;3.60;;
5555;SDS011;2801;50.972;7.856;2024-02-26T10:00:56;3.87;;;2.77;;
5555;SDS011;2801;50.972;7.856;2024-02-26T10:03:32;4.73;;;2.80;;
5555;SDS011;2801;50.972;7.856;2024-02-26T10:06:09;4.93;;;3.10;;
5555;SDS011;2801;50.972;7.856;2024-02-26T10:08:37;5.27;;;3.13;;
5555;SDS011;2801;50.972;7.856;2024-02-26T10:11:04;4.40;;;2.87;;
5555;SDS011;2801;50.972;7.856;2024-02-26T10:13:34;5.07;;;3.17;;
5555;SDS011;2801;50.972;7.856;2024-02-26T10:16:02;5.70;;;3.50;;
5555;SDS011;2801;50.972;7.856;2024-02-26T10:21:24;7.23;;;3.53;;
5555;SDS011;2801;50.972;7.856;2024-02-26T10:23:52;4.97;;;3.43;;
5555;SDS011;2801;50.972;7.856;2024-02-26T10:26:20;5.57;;;3.60;;
5555;SDS011;2801;50.972;7.856;2024-02-26T10:28:48;6.87;;;4.00;;
5555;SDS011;2801;50.972;7.856;2024-02-26T10:31:20;6.07;;;3.73;;
5555;SDS011;2801;50.972;7.856;2024-02-26T10:33:48;6.90;;;3.50;;
5555;SDS011;2801;50.972;7.856;2024-02-26T10:36:16;6.30;;;3.83;;
5555;SDS011;2801;50.972;7.856;2024-02-26T10:38:43;5.07;;;3.10;;
5555;SDS011;2801;50.972;7.856;2024-02-26T10:41:13;5.30;;;3.73;;
5555;SDS011;2801;50.972;7.856;2024-02-26T10:43:43;6.93;;;3.70;;
5555;SDS011;2801;50.972;7.856;2024-02-26T10:46:10;5.90;;;3.77;;
5555;SDS011;2801;50.972;7.856;2024-02-26T10:48:38;6.97;;;3.73;;
5555;SDS011;2801;50.972;7.856;2024-02-26T10:51:05;6.67;;;4.20;;
5555;SDS011;2801;50.972;7.856;2024-02-26T10:53:39;7.07;;;3.77;;
5555;SDS011;2801;50.972;7.856;2024-02-26T10:56:10;7.60;;;3.93;;
5555;SDS011;2801;50.972;7.856;2024-02-26T10:58:38;6.83;;;3.70;;
5555;SDS011;2801;50.972;7.856;2024-02-26T11:01:05;5.87;;;4.00;;
5555;SDS011;2801;50.972;7.856;2024-02-26T11:03:34;6.43;;;3.90;;
5555;SDS011;2801;50.972;7.856;2024-02-26T11:06:03;4.97;;;3.30;;
5555;SDS011;2801;50.972;7.856;2024-02-26T11:08:31;5.50;;;4.20;;
5555;SDS011;2801;50.972;7.856;2024-02-26T11:10:58;6.17;;;3.90;;
5555;SDS011;2801;50.972;7.856;2024-02-26T11:13:27;6.13;;;4.00;;
5555;SDS011;2801;50.972;7.856;2024-02-26T11:16:00;4.77;;;3.03;;
5555;SDS011;2801;50.972;7.856;2024-02-26T11:18:28;8.50;;;4.97;;
5555;SDS011;2801;50.972;7.856;2024-02-26T11:20:59;6.33;;;3.83;;
5555;SDS011;2801;50.972;7.856;2024-02-26T11:23:30;8.00;;;4.03;;
5555;SDS011;2801;50.972;7.856;2024-02-26T11:26:01;5.50;;;3.20;;
5555;SDS011;2801;50.972;7.856;2024-02-26T11:28:32;7.33;;;3.40;;
5555;SDS011;2801;50.972;7.856;2024-02-26T11:31:00;4.87;;;3.00;;
5555;SDS011;2801;50.972;7.856;2024-02-26T11:33:30;7.07;;;4.03;;
5555;SDS011;2801;50.972;7.856;2024-02-26T11:35:58;8.07;;;3.70;;
5555;SDS011;2801;50.972;7.856;2024-02-26T11:38:26;7.43;;;4.33;;
5555;SDS011;2801;50.972;7.856;2024-02-26T11:40:54;6.03;;;3.33;;
5555;SDS011;2801;50.972;7.856;2024-02-26T11:46:47;3.43;;;2.40;;
5555;SDS011;2801;50.972;7.856;2024-02-26T11:51:55;7.47;;;4.70;;
5555;SDS011;2801;50.972;7.856;2024-02-26T11:57:39;6.57;;;4.17;;
5555;SDS011;2801;50.972;7.856;2024-02-26T12:02:37;7.10;;;4.30;;
5555;SDS011;2801;50.972;7.856;2024-02-26T12:05:14;7.73;;;5.10;;
5555;SDS011;2801;50.972;7.856;2024-02-26T12:07:45;12.60;;;5.03;;
5555;SDS011;2801;50.972;7.856;2024-02-26T12:12:58;7.07;;;4.37;;
5555;SDS011;2801;50.972;7.856;2024-02-26T12:15:36;7.73;;;4.57;;
5555;SDS011;2801;50.972;7.856;2024-02-26T12:18:05;12.60;;;7.50;;
5555;SDS011;2801;50.972;7.856;2024-02-26T12:20:37;6.20;;;3.27;;
5555;SDS011;2801;50.972;7.856;2024-02-26T12:23:04;4.70;;;3.10;;
5555;SDS011;2801;50.972;7.856;2024-02-26T12:25:32;8.17;;;5.07;;
5555;SDS011;2801;50.972;7.856;2024-02-26T12:27:59;12.07;;;7.17;;
5555;SDS011;2801;50.972;7.856;2024-02-26T12:30:26;7.60;;;5.17;;
5555;SDS011;2801;50.972;7.856;2024-02-26T12:32:56;8.43;;;5.47;;
5555;SDS011;2801;50.972;7.856;2024-02-26T12:35:24;8.20;;;4.33;;
5555;SDS011;2801;50.972;7.856;2024-02-26T12:37:55;7.90;;;4.70;;
5555;SDS011;2801;50.972;7.856;2024-02-26T12:40:22;9.20;;;5.33;;
5555;SDS011;2801;50.972;7.856;2024-02-26T12:42:49;9.20;;;5.07;;
5555;SDS011;2801;50.972;7.856;2024-02-26T12:45:16;8.17;;;5.07;;
5555;SDS011;2801;50.972;7.856;2024-02-26T12:47:44;7.63;;;4.63;;
5555;SDS011;2801;50.972;7.856;2024-02-26T12:50:12;8.48;;;4.93;;
5555;SDS011;2801;50.972;7.856;2024-02-26T12:52:40;10.30;;;5.37;;
5555;SDS011;2801;50.972;7.856;2024-02-26T12:55:13;9.02;;;4.78;;
5555;SDS011;2801;50.972;7.856;2024-02-26T12:57:44;10.37;;;5.90;;
5555;SDS011;2801;50.972;7.856;2024-02-26T13:00:16;9.25;;;5.13;;
5555;SDS011;2801;50.972;7.856;2024-02-26T13:02:49;9.85;;;4.68;;
5555;SDS011;2801;50.972;7.856;2024-02-26T13:05:17;7.93;;;4.80;;
5555;SDS011;2801;50.972;7.856;2024-02-26T13:07:46;6.67;;;4.27;;
5555;SDS011;2801;50.972;7.856;2024-02-26T13:10:13;9.20;;;4.43;;
5555;SDS011;2801;50.972;7.856;2024-02-26T13:12:45;8.52;;;5.15;;
5555;SDS011;2801;50.972;7.856;2024-02-26T13:15:20;10.18;;;5.25;;
5555;SDS011;2801;50.972;7.856;2024-02-26T13:17:49;11.03;;;5.40;;
5555;SDS011;2801;50.972;7.856;2024-02-26T13:20:29;10.37;;;5.20;;
5555;SDS011;2801;50.972;7.856;2024-02-26T13:23:03;9.20;;;5.07;;
5555;SDS011;2801;50.972;7.856;2024-02-26T13:25:33;10.80;;;5.80;;
5555;SDS011;2801;50.972;7.856;2024-02-26T13:28:09;10.07;;;5.47;;
5555;SDS011;2801;50.972;7.856;2024-02-26T13:30:54;8.77;;;4.65;;
5555;SDS011;2801;50.972;7.856;2024-02-26T13:33:24;12.35;;;5.95;;
5555;SDS011;2801;50.972;7.856;2024-02-26T13:35:53;8.73;;;4.93;;
5555;SDS011;2801;50.972;7.856;2024-02-26T13:38:24;6.43;;;4.03;;
5555;SDS011;2801;50.972;7.856;2024-02-26T13:40:52;9.10;;;5.27;;
5555;SDS011;2801;50.972;7.856;2024-02-26T13:43:19;9.05;;;5.20;;
5555;SDS011;2801;50.972;7.856;2024-02-26T13:45:46;9.10;;;5.43;;
5555;SDS011;2801;50.972;7.856;2024-02-26T13:48:14;7.82;;;4.85;;
5555;SDS011;2801;50.972;7.856;2024-02-26T13:50:42;10.03;;;6.03;;
5555;SDS011;2801;50.972;7.856;2024-02-26T13:53:10;10.70;;;5.60;;
5555;SDS011;2801;50.972;7.856;2024-02-26T13:55:37;8.98;;;5.30;;
5555;SDS011;2801;50.972;7.856;2024-02-26T13:58:08;8.63;;;4.50;;
5555;SDS011;2801;50.972;7.856;2024-02-26T14:00:39;10.40;;;5.70;;
5555;SDS011;2801;50.972;7.856;2024-02-26T14:03:09;9.88;;;5.68;;
5555;SDS011;2801;50.972;7.856;2024-02-26T14:05:36;12.27;;;6.40;;
5555;SDS011;2801;50.972;7.856;2024-02-26T14:08:03;9.90;;;5.53;;
5555;SDS011;2801;50.972;7.856;2024-02-26T14:10:31;7.78;;;4.55;;
5555;SDS011;2801;50.972;7.856;2024-02-26T14:12:58;9.75;;;6.05;;
5555;SDS011;2801;50.972;7.856;2024-02-26T14:15:27;9.52;;;5.63;;
5555;SDS011;2801;50.972;7.856;2024-02-26T14:17:55;8.43;;;5.50;;
5555;SDS011;2801;50.972;7.856;2024-02-26T14:20:23;9.05;;;6.00;;
5555;SDS011;2801;50.972;7.856;2024-02-26T14:22:52;10.93;;;6.30;;
5555;SDS011;2801;50.972;7.856;2024-02-26T14:25:22;11.40;;;6.70;;
5555;SDS011;2801;50.972;7.856;2024-02-26T14:27:51;9.63;;;5.70;;
5555;SDS011;2801;50.972;7.856;2024-02-26T14:30:18;4.90;;;3.23;;
5555;SDS011;2801;50.972;7.856;2024-02-26T14:32:45;8.60;;;5.20;;
5555;SDS011;2801;50.972;7.856;2024-02-26T14:35:12;9.48;;;5.32;;
5555;SDS011;2801;50.972;7.856;2024-02-26T14:37:43;8.40;;;4.75;;
5555;SDS011;2801;50.972;7.856;2024-02-26T14:40:15;8.80;;;5.17;;
5555;SDS011;2801;50.972;7.856;2024-02-26T14:42:43;8.98;;;5.05;;
5555;SDS011;2801;50.972;7.856;2024-02-26T14:45:10;8.97;;;4.20;;
5555;SDS011;2801;50.972;7.856;2024-02-26T14:47:38;7.22;;;5.18;;
5555;SDS011;2801;50.972;7.856;2024-02-26T14:50:06;8.75;;;5.18;;
5555;SDS011;2801;50.972;7.856;2024-02-26T14:52:34;8.55;;;5.68;;
5555;SDS011;2801;50.972;7.856;2024-02-26T14:55:01;8.40;;;5.00;;
5555;SDS011;2801;50.972;7.856;2024-02-26T14:57:28;11.13;;;5.47;;
5555;SDS011;2801;50.972;7.856;2024-02-26T14:59:55;8.97;;;5.60;;
5555;SDS011;2801;50.972;7.856;2024-02-26T15:02:22;9.17;;;5.30;;
5555;SDS011;2801;50.972;7.856;2024-02-26T15:04:50;10.68;;;5.70;;
5555;SDS011;2801;50.972;7.856;2024-02-26T15:07:17;11.00;;;6.03;;
5555;SDS011;2801;50.972;7.856;2024-02-26T15:09:46;10.35;;;5.50;;
5555;SDS011;2801;50.972;7.856;2024-02-26T15:12:13;12.00;;;6.57;;
5555;SDS011;2801;50.972;7.856;2024-02-26T15:14:41;10.93;;;5.88;;
5555;SDS011;2801;50.972;7.856;2024-02-26T15:17:08;10.38;;;5.93;;
5555;SDS011;2801;50.972;7.856;2024-02-26T15:19:39;9.65;;;5.38;;
5555;SDS011;2801;50.972;7.856;2024-02-26T15:22:06;9.38;;;5.20;;
5555;SDS011;2801;50.972;7.856;2024-02-26T15:24:33;7.80;;;5.22;;
5555;SDS011;2801;50.972;7.856;2024-02-26T15:27:00;8.98;;;5.22;;
5555;SDS011;2801;50.972;7.856;2024-02-26T15:29:27;10.57;;;5.70;;
5555;SDS011;2801;50.972;7.856;2024-02-26T15:31:54;10.10;;;5.70;;
5555;SDS011;2801;50.972;7.856;2024-02-26T15:34:21;9.30;;;5.60;;
5555;SDS011;2801;50.972;7.856;2024-02-26T15:36:48;10.38;;;5.70;;
5555;SDS011;2801;50.972;7.856;2024-02-26T15:39:15;11.27;;;6.07;;